createdAt,value
2022-08-05T00:00:24.199Z,66.00
2022-08-05T00:02:57.998Z,66.20
2022-08-05T00:06:05.066Z,66.10
2022-08-05T00:08:34.592Z,67.20
2022-08-05T00:11:20.675Z,67.50
2022-08-05T00:14:00.612Z,68.50
2022-08-05T00:16:35.973Z,68.40
2022-08-05T00:19:24.702Z,68.60
2022-08-05T00:21:57.852Z,68.50
2022-08-05T00:24:31.080Z,67.60
2022-08-05T00:27:04.738Z,69.90
2022-08-05T00:29:41.436Z,69.00
2022-08-05T00:32:15.056Z,69.00
2022-08-05T00:35:05.542Z,69.80
2022-08-05T00:37:53.376Z,68.60
2022-08-05T00:40:29.384Z,69.90
2022-08-05T00:43:02.677Z,69.50
2022-08-05T00:45:43.779Z,69.50
2022-08-05T00:48:16.388Z,69.50
2022-08-05T00:50:48.751Z,69.40
2022-08-05T00:54:00.738Z,70.60
2022-08-05T00:56:13.970Z,69.70
2022-08-05T00:58:48.542Z,69.60
2022-08-05T01:01:42.205Z,69.30
2022-08-05T01:04:14.292Z,70.20
2022-08-05T01:06:48.577Z,70.70
2022-08-05T01:09:21.325Z,69.90
2022-08-05T01:11:54.443Z,70.00
2022-08-05T01:14:33.235Z,70.70
2022-08-05T01:17:08.198Z,70.00
2022-08-05T01:20:00.770Z,69.10
2022-08-05T01:22:47.197Z,70.00
2022-08-05T01:25:52.363Z,70.50
2022-08-05T01:28:35.665Z,70.10
2022-08-05T01:31:13.371Z,70.60
2022-08-05T01:33:53.688Z,70.80
2022-08-05T01:36:31.380Z,71.50
2022-08-05T01:39:04.536Z,72.80
2022-08-05T01:41:38.396Z,73.50
2022-08-05T01:44:19.322Z,72.80
2022-08-05T01:46:51.179Z,73.00
2022-08-05T01:49:26.359Z,72.60
2022-08-05T01:52:19.128Z,74.10
2022-08-05T01:54:55.251Z,74.00
2022-08-05T01:58:09.430Z,74.70
2022-08-05T02:00:30.518Z,74.00
2022-08-05T02:03:06.053Z,74.20
2022-08-05T02:05:39.615Z,74.30
2022-08-05T02:08:13.616Z,74.60
2022-08-05T02:11:11.838Z,75.40
2022-08-05T02:13:53.628Z,74.90
2022-08-05T02:16:29.920Z,75.40
2022-08-05T02:19:07.176Z,76.50
2022-08-05T02:21:43.301Z,76.90
2022-08-05T02:24:22.150Z,77.50
2022-08-05T02:26:58.899Z,78.30
2022-08-05T02:29:58.402Z,78.90
2022-08-05T02:32:29.363Z,79.60
2022-08-05T02:35:13.685Z,77.80
2022-08-05T02:37:47.882Z,78.50
2022-08-05T02:40:26.565Z,79.40
2022-08-05T02:42:59.931Z,80.00
2022-08-05T02:45:52.108Z,79.90
2022-08-05T02:48:29.212Z,80.30
2022-08-05T02:51:02.739Z,81.00
2022-08-05T02:53:39.103Z,81.00
2022-08-05T02:56:15.932Z,81.90
2022-08-05T02:58:51.150Z,83.20
2022-08-05T03:01:27.129Z,83.20
2022-08-05T03:04:14.041Z,83.00
2022-08-05T03:06:53.703Z,82.90
2022-08-05T03:09:37.733Z,83.40
2022-08-05T03:12:31.547Z,83.10
2022-08-05T03:15:03.341Z,83.70
2022-08-05T03:17:40.710Z,84.90
2022-08-05T03:20:15.431Z,84.80
2022-08-05T03:22:46.968Z,85.90
2022-08-05T03:25:33.176Z,86.40
2022-08-05T03:28:14.711Z,86.60
2022-08-05T03:30:51.578Z,85.70
2022-08-05T03:33:42.243Z,86.00
2022-08-05T03:36:30.037Z,86.80
2022-08-05T03:39:01.783Z,87.50
2022-08-05T03:41:33.160Z,88.00
2022-08-05T03:44:11.854Z,88.50
2022-08-05T03:46:42.818Z,89.90
2022-08-05T03:49:17.106Z,89.20
2022-08-05T03:52:39.070Z,89.80
2022-08-05T03:56:01.645Z,89.80
2022-08-05T03:57:49.914Z,90.10
2022-08-05T04:00:22.656Z,90.30
2022-08-05T04:02:59.215Z,90.70
2022-08-05T04:05:35.214Z,90.90
2022-08-05T04:08:29.713Z,91.30
2022-08-05T04:11:01.774Z,91.90
2022-08-05T04:13:49.727Z,92.40
2022-08-05T04:16:24.056Z,92.90
2022-08-05T04:18:57.700Z,93.40
2022-08-05T04:22:10.401Z,93.90
2022-08-05T04:24:22.681Z,94.30
2022-08-05T04:26:53.635Z,94.80
2022-08-05T04:29:25.073Z,94.80
2022-08-05T04:31:58.016Z,95.20
2022-08-05T04:34:33.411Z,95.40
2022-08-05T04:37:05.619Z,95.30
2022-08-05T04:39:38.138Z,95.40
2022-08-05T04:42:10.712Z,95.50
2022-08-05T04:44:42.258Z,95.80
2022-08-05T04:47:15.795Z,96.00
2022-08-05T04:50:02.876Z,96.10
2022-08-05T04:52:40.096Z,96.80
2022-08-05T04:55:14.525Z,97.50
2022-08-05T04:57:54.035Z,97.60
2022-08-05T05:00:25.349Z,98.10
2022-08-05T05:02:58.208Z,98.90
2022-08-05T05:05:34.190Z,98.90
2022-08-05T05:08:29.949Z,98.30
2022-08-05T05:11:02.898Z,98.60
2022-08-05T05:13:43.223Z,99.00
2022-08-05T05:16:15.494Z,99.60
2022-08-05T05:19:16.451Z,99.70
2022-08-05T05:21:41.185Z,99.60
2022-08-05T05:24:12.046Z,99.80
2022-08-05T05:26:46.433Z,99.80
2022-08-05T05:29:18.735Z,99.80
2022-08-05T05:31:49.954Z,99.90
2022-08-05T05:34:26.939Z,99.90
2022-08-05T05:36:58.008Z,99.90
2022-08-05T05:39:31.588Z,99.90
2022-08-05T05:42:07.537Z,99.90
2022-08-05T05:44:44.413Z,99.90
2022-08-05T05:47:21.956Z,99.90
2022-08-05T05:49:56.949Z,99.90
2022-08-05T05:52:37.962Z,99.90
2022-08-05T05:55:13.773Z,99.90
2022-08-05T05:57:52.166Z,99.90
2022-08-05T06:00:31.343Z,99.90
2022-08-05T06:03:28.624Z,99.90
2022-08-05T06:05:55.771Z,99.90
2022-08-05T06:08:31.891Z,99.90
2022-08-05T06:11:04.073Z,99.90
2022-08-05T06:13:40.930Z,99.90
2022-08-05T06:16:30.015Z,99.90
2022-08-05T06:19:05.970Z,99.90
2022-08-05T06:21:42.316Z,99.90
2022-08-05T06:24:25.646Z,99.90
2022-08-05T06:26:58.063Z,99.90
2022-08-05T06:29:46.670Z,99.90
2022-08-05T06:32:25.973Z,99.90
2022-08-05T06:35:05.974Z,99.90
2022-08-05T06:37:57.305Z,99.90
2022-08-05T06:40:32.433Z,99.90
2022-08-05T06:43:03.700Z,99.90
2022-08-05T06:46:03.041Z,99.90
2022-08-05T06:48:52.548Z,99.90
2022-08-05T06:51:23.800Z,99.90
2022-08-05T06:54:00.441Z,99.90
2022-08-05T06:56:34.502Z,99.90
2022-08-05T06:59:09.774Z,99.90
2022-08-05T07:01:44.240Z,99.90
2022-08-05T07:04:16.921Z,99.90
2022-08-05T07:06:50.445Z,99.90
2022-08-05T07:09:21.279Z,99.90
2022-08-05T07:11:56.601Z,99.90
2022-08-05T07:14:48.111Z,99.90
2022-08-05T07:18:01.402Z,99.90
2022-08-05T07:20:32.085Z,99.90
2022-08-05T07:23:02.887Z,99.90
2022-08-05T07:25:56.094Z,99.90
2022-08-05T07:28:26.141Z,99.90
2022-08-05T07:30:56.859Z,99.90
2022-08-05T07:33:37.221Z,99.90
2022-08-05T07:36:20.091Z,99.90
2022-08-05T07:38:54.702Z,99.90
2022-08-05T07:42:12.977Z,99.90
2022-08-05T07:44:19.173Z,99.90
2022-08-05T07:46:51.168Z,99.90
2022-08-05T07:49:23.819Z,99.90
2022-08-05T07:51:55.208Z,99.90
2022-08-05T07:54:30.655Z,99.90
2022-08-05T07:57:22.834Z,99.90
2022-08-05T07:59:53.869Z,99.90
2022-08-05T08:02:31.434Z,99.90
2022-08-05T08:05:21.155Z,99.90
2022-08-05T08:08:00.053Z,99.90
2022-08-05T08:10:31.616Z,99.90
2022-08-05T08:13:03.649Z,99.90
2022-08-05T08:16:33.493Z,99.90
2022-08-05T08:18:25.464Z,99.90
2022-08-05T08:21:02.897Z,99.90
2022-08-05T08:24:01.239Z,99.90
2022-08-05T08:26:29.674Z,99.90
2022-08-05T08:29:21.665Z,99.90
2022-08-05T08:31:52.937Z,99.90
2022-08-05T08:34:30.545Z,99.90
2022-08-05T08:37:05.728Z,99.90
2022-08-05T08:39:37.324Z,99.90
2022-08-05T08:42:33.814Z,99.90
2022-08-05T08:45:23.383Z,99.90
2022-08-05T08:48:10.489Z,99.90
2022-08-05T08:51:03.334Z,99.90
2022-08-05T08:53:45.291Z,99.90
2022-08-05T08:56:16.165Z,99.90
2022-08-05T08:58:48.989Z,99.90
2022-08-05T09:01:22.100Z,99.90
2022-08-05T09:03:57.255Z,99.90
2022-08-05T09:06:29.711Z,99.90
2022-08-05T09:09:04.136Z,99.90
2022-08-05T09:11:51.638Z,99.90
2022-08-05T09:14:57.811Z,99.90
2022-08-05T09:17:40.089Z,99.90
2022-08-05T09:20:08.534Z,99.90
2022-08-05T09:23:09.498Z,99.90
2022-08-05T09:26:01.419Z,99.90
2022-08-05T09:28:34.876Z,99.90
2022-08-05T09:31:22.366Z,99.90
2022-08-05T09:33:59.788Z,99.90
2022-08-05T09:36:54.593Z,99.90
2022-08-05T09:39:45.497Z,99.90
2022-08-05T09:42:24.237Z,99.90
2022-08-05T09:45:17.584Z,99.90
2022-08-05T09:47:56.205Z,99.90
2022-08-05T09:50:44.593Z,99.90
2022-08-05T09:53:25.895Z,99.90
2022-08-05T09:56:03.940Z,99.90
2022-08-05T09:58:43.890Z,99.90
2022-08-05T10:01:31.698Z,99.90
2022-08-05T10:04:10.251Z,99.90
2022-08-05T10:06:49.949Z,99.90
2022-08-05T10:09:30.227Z,99.90
2022-08-05T10:12:30.319Z,99.90
2022-08-05T10:15:20.844Z,99.90
2022-08-05T10:18:08.576Z,99.90
2022-08-05T10:20:41.537Z,99.90
2022-08-05T10:23:34.458Z,99.90
2022-08-05T10:26:07.674Z,99.90
2022-08-05T10:28:46.672Z,99.90
2022-08-05T10:32:52.445Z,99.90
2022-08-05T10:34:11.865Z,99.90
2022-08-05T10:36:44.439Z,99.90
2022-08-05T10:39:24.010Z,99.90
2022-08-05T10:42:02.149Z,99.90
2022-08-05T10:44:35.320Z,99.90
2022-08-05T10:47:26.204Z,99.90
2022-08-05T10:50:31.935Z,99.90
2022-08-05T10:53:01.853Z,99.90
2022-08-05T10:56:03.613Z,99.90
2022-08-05T10:58:35.943Z,99.90
2022-08-05T11:01:15.135Z,99.90
2022-08-05T11:04:09.516Z,99.90
2022-08-05T11:07:07.636Z,99.90
2022-08-05T11:09:51.194Z,99.90
2022-08-05T11:12:50.817Z,99.90
2022-08-05T11:15:59.111Z,99.90
2022-08-05T11:18:32.250Z,99.90
2022-08-05T11:21:11.271Z,99.90
2022-08-05T11:24:04.181Z,99.90
2022-08-05T11:26:49.708Z,99.90
2022-08-05T11:29:47.861Z,99.90
2022-08-05T11:32:28.870Z,99.90
2022-08-05T11:35:00.526Z,99.90
2022-08-05T11:38:29.584Z,99.90
2022-08-05T11:41:34.397Z,99.90
2022-08-05T11:44:07.343Z,99.90
2022-08-05T11:47:09.176Z,99.90
2022-08-05T11:49:33.737Z,99.90
2022-08-05T11:52:11.467Z,99.90
2022-08-05T11:54:48.514Z,99.90
2022-08-05T11:57:39.312Z,99.90
2022-08-05T12:00:32.095Z,99.90
2022-08-05T12:03:29.436Z,99.90
2022-08-05T12:06:06.390Z,99.90
2022-08-05T12:08:50.604Z,99.90
2022-08-05T12:11:28.247Z,99.90
2022-08-05T12:14:11.243Z,99.90
2022-08-05T12:16:45.612Z,99.90
2022-08-05T12:20:27.888Z,99.90
2022-08-05T12:22:09.720Z,99.90
2022-08-05T12:24:49.459Z,99.90
2022-08-05T12:27:32.939Z,99.90
2022-08-05T12:30:05.363Z,99.90
2022-08-05T12:32:36.512Z,99.90
2022-08-05T12:35:11.806Z,99.90
2022-08-05T12:37:50.069Z,99.90
2022-08-05T12:40:29.654Z,99.90
2022-08-05T12:43:02.240Z,99.90
2022-08-05T12:45:42.409Z,99.90
2022-08-05T12:48:32.699Z,99.90
2022-08-05T12:52:10.014Z,99.90
2022-08-05T12:54:04.793Z,99.90
2022-08-05T12:56:51.522Z,99.90
2022-08-05T12:59:46.668Z,99.90
2022-08-05T13:02:19.397Z,99.90
2022-08-05T13:04:54.517Z,99.90
2022-08-05T13:07:57.546Z,99.90
2022-08-05T13:10:20.379Z,99.90
2022-08-05T13:12:57.951Z,99.90
2022-08-05T13:15:35.097Z,99.90
2022-08-05T13:18:13.082Z,99.90
2022-08-05T13:20:50.921Z,99.90
2022-08-05T13:23:22.410Z,99.90
2022-08-05T13:25:59.264Z,99.90
2022-08-05T13:28:32.748Z,99.90
2022-08-05T13:31:13.971Z,99.90
2022-08-05T13:34:25.062Z,99.90
2022-08-05T13:36:36.486Z,99.90
2022-08-05T13:39:24.393Z,99.90
2022-08-05T13:41:59.546Z,99.90
2022-08-05T13:44:30.303Z,99.90
2022-08-05T13:47:08.393Z,99.90
2022-08-05T13:49:46.485Z,99.90
2022-08-05T13:52:18.667Z,99.90
2022-08-05T13:55:01.176Z,99.90
2022-08-05T13:57:48.553Z,99.90
2022-08-05T14:00:26.933Z,99.90
2022-08-05T14:03:01.134Z,99.90
2022-08-05T14:06:04.895Z,99.90
2022-08-05T14:08:27.497Z,99.90
2022-08-05T14:11:20.591Z,99.90
2022-08-05T14:13:54.985Z,99.90
2022-08-05T14:16:27.746Z,99.90
2022-08-05T14:19:04.479Z,99.90
2022-08-05T14:22:10.387Z,99.90
2022-08-05T14:24:27.286Z,99.90
2022-08-05T14:27:17.773Z,99.90
2022-08-05T14:29:51.331Z,99.90
2022-08-05T14:32:27.738Z,99.90
2022-08-05T14:35:01.558Z,99.90
2022-08-05T14:37:47.335Z,99.90
2022-08-05T14:40:20.698Z,99.90
2022-08-05T14:42:55.334Z,99.90
2022-08-05T14:45:27.141Z,99.90
2022-08-05T14:48:05.065Z,99.90
2022-08-05T14:50:40.671Z,99.90
2022-08-05T14:53:11.698Z,99.40
2022-08-05T14:55:47.366Z,96.20
2022-08-05T14:58:23.238Z,94.30
2022-08-05T15:00:59.638Z,90.40
2022-08-05T15:03:33.990Z,84.20
2022-08-05T15:06:14.935Z,78.20
2022-08-05T15:09:01.123Z,77.20
2022-08-05T15:11:50.874Z,76.20
2022-08-05T15:14:34.642Z,72.40
2022-08-05T15:17:44.534Z,71.30
2022-08-05T15:20:02.839Z,66.80
2022-08-05T15:22:35.561Z,65.40
2022-08-05T15:25:11.567Z,65.90
2022-08-05T15:27:42.867Z,64.70
2022-08-05T15:30:22.573Z,64.40
2022-08-05T15:32:53.372Z,65.30
2022-08-05T15:35:25.816Z,59.80
2022-08-05T15:38:34.917Z,59.60
2022-08-05T15:41:03.739Z,60.00
2022-08-05T15:43:45.944Z,60.90
2022-08-05T15:46:18.180Z,57.40
2022-08-05T15:48:52.773Z,58.40
2022-08-05T15:52:12.886Z,57.30
2022-08-05T15:54:35.094Z,59.20
2022-08-05T15:57:08.686Z,57.40
2022-08-05T15:59:40.512Z,57.60
2022-08-05T16:02:25.804Z,58.40
2022-08-05T16:04:59.324Z,55.40
2022-08-05T16:07:30.086Z,56.80
2022-08-05T16:10:02.491Z,56.00
2022-08-05T16:12:33.289Z,56.80
2022-08-05T16:15:05.055Z,56.90
2022-08-05T16:17:35.834Z,55.80
2022-08-05T16:20:11.488Z,55.30
2022-08-05T16:22:43.328Z,55.50
2022-08-05T16:25:15.722Z,56.00
2022-08-05T16:28:00.987Z,55.70
2022-08-05T16:30:37.278Z,55.50
2022-08-05T16:33:08.125Z,54.80
2022-08-05T16:35:43.072Z,52.80
2022-08-05T16:38:25.165Z,53.40
2022-08-05T16:42:24.126Z,52.30
2022-08-05T16:43:56.384Z,49.70
2022-08-05T16:46:27.343Z,50.40
2022-08-05T16:48:58.123Z,50.70
2022-08-05T16:51:30.769Z,49.90
2022-08-05T16:54:05.276Z,52.70
2022-08-05T16:56:43.699Z,50.80
2022-08-05T16:59:16.795Z,53.30
2022-08-05T17:01:54.650Z,52.90
2022-08-05T17:04:28.367Z,51.00
2022-08-05T17:07:01.586Z,50.30
2022-08-05T17:09:57.459Z,50.80
2022-08-05T17:12:50.598Z,50.50
2022-08-05T17:15:19.357Z,51.20
2022-08-05T17:17:55.007Z,52.00
2022-08-05T17:20:26.712Z,51.50
2022-08-05T17:22:58.980Z,50.30
2022-08-05T17:25:39.708Z,50.70
2022-08-05T17:28:15.562Z,51.70
2022-08-05T17:30:51.839Z,51.70
2022-08-05T17:33:23.558Z,49.50
2022-08-05T17:36:07.830Z,50.00
2022-08-05T17:38:41.536Z,50.20
2022-08-05T17:42:16.905Z,49.00
2022-08-05T17:44:05.034Z,49.00
2022-08-05T17:46:35.848Z,47.80
2022-08-05T17:49:08.248Z,48.30
2022-08-05T17:51:40.101Z,49.50
2022-08-05T17:54:11.392Z,46.90
2022-08-05T17:56:45.059Z,48.80
2022-08-05T17:59:22.659Z,50.40
2022-08-05T18:01:54.142Z,48.40
2022-08-05T18:04:27.083Z,49.10
2022-08-05T18:07:00.283Z,47.00
2022-08-05T18:09:59.415Z,49.00
2022-08-05T18:12:24.373Z,48.00
2022-08-05T18:14:57.399Z,47.80
2022-08-05T18:18:00.669Z,49.40
2022-08-05T18:20:28.957Z,47.70
2022-08-05T18:23:04.844Z,47.20
2022-08-05T18:25:45.328Z,47.00
2022-08-05T18:28:22.017Z,45.80
2022-08-05T18:31:00.696Z,46.80
2022-08-05T18:33:43.190Z,46.00
2022-08-05T18:36:19.324Z,46.30
2022-08-05T18:38:50.224Z,47.10
2022-08-05T18:41:55.690Z,47.50
2022-08-05T18:44:12.803Z,46.70
2022-08-05T18:46:45.283Z,46.90
2022-08-05T18:49:57.108Z,48.00
2022-08-05T18:52:51.082Z,47.90
2022-08-05T18:55:22.999Z,48.20
2022-08-05T18:58:02.987Z,47.40
2022-08-05T19:00:34.746Z,47.40
2022-08-05T19:03:07.489Z,48.90
2022-08-05T19:06:12.382Z,47.10
2022-08-05T19:08:30.726Z,48.60
2022-08-05T19:11:05.097Z,50.00
2022-08-05T19:13:38.748Z,50.60
2022-08-05T19:16:25.163Z,48.90
2022-08-05T19:19:02.557Z,49.80
2022-08-05T19:21:36.110Z,49.80
2022-08-05T19:24:13.042Z,49.90
2022-08-05T19:26:55.521Z,48.80
2022-08-05T19:29:36.153Z,48.80
2022-08-05T19:32:11.430Z,49.30
2022-08-05T19:34:54.723Z,48.40
2022-08-05T19:37:29.727Z,47.80
2022-08-05T19:40:08.205Z,49.50
2022-08-05T19:42:41.290Z,49.00
2022-08-05T19:45:14.424Z,49.60
2022-08-05T19:47:45.538Z,50.90
2022-08-05T19:50:18.729Z,52.50
2022-08-05T19:52:49.877Z,49.50
2022-08-05T19:56:14.766Z,49.90
2022-08-05T19:58:28.173Z,51.70
2022-08-05T20:01:02.613Z,51.70
2022-08-05T20:03:38.774Z,51.20
2022-08-05T20:06:15.579Z,52.30
2022-08-05T20:08:47.468Z,55.70
2022-08-05T20:11:20.036Z,53.60
2022-08-05T20:13:58.844Z,52.60
2022-08-05T20:16:43.180Z,54.20
2022-08-05T20:19:14.216Z,53.90
2022-08-05T20:21:48.600Z,50.60
2022-08-05T20:24:20.575Z,51.10
2022-08-05T20:26:51.563Z,52.90
2022-08-05T20:29:26.825Z,55.30
2022-08-05T20:31:59.740Z,54.00
2022-08-05T20:34:30.671Z,54.60
2022-08-05T20:37:03.442Z,52.40
2022-08-05T20:39:35.460Z,54.50
2022-08-05T20:42:08.010Z,53.40
2022-08-05T20:44:42.539Z,50.40
2022-08-05T20:47:15.056Z,53.30
2022-08-05T20:49:45.912Z,53.00
2022-08-05T20:52:24.027Z,53.60
2022-08-05T20:55:55.311Z,52.90
2022-08-05T20:57:48.977Z,52.10
2022-08-05T21:00:41.120Z,53.50
2022-08-05T21:03:11.336Z,55.10
2022-08-05T21:05:53.829Z,52.00
2022-08-05T21:08:42.016Z,52.80
2022-08-05T21:11:51.613Z,52.40
2022-08-05T21:14:04.337Z,53.60
2022-08-05T21:16:36.434Z,51.10
2022-08-05T21:19:07.746Z,51.20
2022-08-05T21:21:39.786Z,52.20
2022-08-05T21:24:17.118Z,54.20
2022-08-05T21:26:57.942Z,51.40
2022-08-05T21:29:31.353Z,52.10
2022-08-05T21:32:04.213Z,53.40
2022-08-05T21:34:35.549Z,53.10
2022-08-05T21:37:08.904Z,50.90
2022-08-05T21:39:41.327Z,50.70
2022-08-05T21:42:31.004Z,52.90
2022-08-05T21:45:06.405Z,52.30
2022-08-05T21:47:56.552Z,50.80
2022-08-05T21:50:28.611Z,52.60
2022-08-05T21:53:04.895Z,51.50
2022-08-05T21:56:05.028Z,53.00
2022-08-05T21:58:42.282Z,53.40
2022-08-05T22:01:23.856Z,52.80
2022-08-05T22:03:58.362Z,53.50
2022-08-05T22:06:35.176Z,53.00
2022-08-05T22:09:14.688Z,53.00
2022-08-05T22:11:47.843Z,52.70
2022-08-05T22:14:35.768Z,51.40
2022-08-05T22:17:09.475Z,53.30
2022-08-05T22:20:01.888Z,53.00
2022-08-05T22:22:32.035Z,51.50
2022-08-05T22:25:27.236Z,52.20
2022-08-05T22:28:05.049Z,52.20
2022-08-05T22:30:53.514Z,51.90
2022-08-05T22:33:58.408Z,51.60
2022-08-05T22:36:19.104Z,52.30
2022-08-05T22:38:55.132Z,53.10
2022-08-05T22:42:10.827Z,53.10
2022-08-05T22:44:18.943Z,52.30
2022-08-05T22:46:50.132Z,52.30
2022-08-05T22:49:46.175Z,53.40
2022-08-05T22:52:22.720Z,52.50
2022-08-05T22:55:01.625Z,52.20
2022-08-05T22:57:36.150Z,51.90
2022-08-05T23:00:10.928Z,51.90
2022-08-05T23:02:49.328Z,50.80
2022-08-05T23:05:22.203Z,50.50
2022-08-05T23:07:53.615Z,51.60
2022-08-05T23:10:26.172Z,51.90
2022-08-05T23:12:57.457Z,51.50
2022-08-05T23:15:34.921Z,52.10
2022-08-05T23:18:11.738Z,51.80
2022-08-05T23:20:46.746Z,52.40
2022-08-05T23:23:19.637Z,51.20
2022-08-05T23:25:55.346Z,52.10
2022-08-05T23:28:28.813Z,52.10
2022-08-05T23:31:17.223Z,51.30
2022-08-05T23:34:04.124Z,52.10
2022-08-05T23:36:44.530Z,52.30
2022-08-05T23:39:32.104Z,52.40
2022-08-05T23:42:14.338Z,52.20
2022-08-05T23:44:45.417Z,51.80
2022-08-05T23:47:27.000Z,53.00
2022-08-05T23:49:57.888Z,53.50
2022-08-05T23:52:31.716Z,53.50
2022-08-05T23:55:07.024Z,53.30
2022-08-05T23:57:39.918Z,52.70
